createdAt,value
2019-05-23T00:00:50.751Z,66.00
2019-05-23T00:03:21.287Z,66.30
2019-05-23T00:05:54.510Z,66.30
2019-05-23T00:08:26.255Z,66.30
2019-05-23T00:10:56.366Z,66.50
2019-05-23T00:13:45.799Z,66.50
2019-05-23T00:16:15.749Z,66.70
2019-05-23T00:18:44.956Z,66.70
2019-05-23T00:21:14.028Z,66.80
2019-05-23T00:23:43.030Z,66.90
2019-05-23T00:26:12.913Z,67.00
2019-05-23T00:28:42.264Z,67.10
2019-05-23T00:31:21.620Z,67.30
2019-05-23T00:33:51.952Z,67.40
2019-05-23T00:36:23.356Z,67.50
2019-05-23T00:38:52.742Z,67.40
2019-05-23T00:41:24.056Z,68.00
2019-05-23T00:43:53.826Z,68.40
2019-05-23T00:46:24.579Z,68.40
2019-05-23T00:48:55.667Z,68.60
2019-05-23T00:51:25.588Z,68.60
2019-05-23T00:53:56.725Z,68.60
2019-05-23T00:56:26.356Z,68.60
2019-05-23T00:58:56.269Z,69.00
2019-05-23T01:01:25.835Z,68.70
2019-05-23T01:03:56.183Z,69.10
2019-05-23T01:06:25.415Z,69.40
2019-05-23T01:08:54.246Z,69.50
2019-05-23T01:11:25.231Z,69.50
2019-05-23T01:13:56.335Z,69.40
2019-05-23T01:16:25.354Z,69.60
2019-05-23T01:18:54.055Z,69.60
2019-05-23T01:21:42.238Z,69.70
2019-05-23T01:24:32.304Z,69.80
2019-05-23T01:27:04.462Z,69.80
2019-05-23T01:29:38.180Z,70.10
2019-05-23T01:32:14.898Z,70.30
2019-05-23T01:34:45.251Z,70.50
2019-05-23T01:37:13.901Z,70.40
2019-05-23T01:39:43.127Z,70.50
2019-05-23T01:42:12.450Z,70.40
2019-05-23T01:44:41.565Z,70.40
2019-05-23T01:47:10.400Z,70.50
2019-05-23T01:49:39.974Z,70.70
2019-05-23T01:52:09.020Z,70.70
2019-05-23T01:54:38.952Z,71.00
2019-05-23T01:57:07.583Z,71.20
2019-05-23T01:59:36.975Z,71.30
2019-05-23T02:02:06.663Z,71.20
2019-05-23T02:04:35.568Z,71.30
2019-05-23T02:07:05.050Z,71.30
2019-05-23T02:09:34.798Z,71.40
2019-05-23T02:12:08.630Z,71.60
2019-05-23T02:14:38.515Z,71.70
2019-05-23T02:17:11.601Z,71.80
2019-05-23T02:19:41.450Z,72.10
2019-05-23T02:22:13.503Z,72.00
2019-05-23T02:24:44.404Z,72.20
2019-05-23T02:27:12.991Z,72.20
2019-05-23T02:29:44.775Z,72.10
2019-05-23T02:32:32.612Z,72.30
2019-05-23T02:35:04.371Z,72.20
2019-05-23T02:37:36.086Z,72.30
2019-05-23T02:40:11.865Z,72.40
2019-05-23T02:42:44.699Z,72.30
2019-05-23T02:45:27.573Z,72.30
2019-05-23T02:47:59.223Z,72.70
2019-05-23T02:50:35.135Z,72.70
2019-05-23T02:53:08.146Z,72.70
2019-05-23T02:55:40.857Z,72.80
2019-05-23T02:58:12.866Z,72.90
2019-05-23T03:00:54.134Z,72.90
2019-05-23T03:03:25.882Z,73.20
2019-05-23T03:05:56.727Z,73.90
2019-05-23T03:08:25.394Z,73.20
2019-05-23T03:11:25.579Z,73.30
2019-05-23T03:13:56.007Z,73.20
2019-05-23T03:16:28.032Z,73.10
2019-05-23T03:19:00.074Z,73.20
2019-05-23T03:21:34.941Z,73.30
2019-05-23T03:24:09.700Z,73.20
2019-05-23T03:26:58.491Z,73.60
2019-05-23T03:29:34.438Z,73.60
2019-05-23T03:32:09.746Z,73.50
2019-05-23T03:34:49.789Z,73.70
2019-05-23T03:37:19.954Z,73.60
2019-05-23T03:39:55.315Z,73.60
2019-05-23T03:42:30.038Z,73.60
2019-05-23T03:45:07.084Z,73.70
2019-05-23T03:47:39.756Z,73.70
2019-05-23T03:50:08.056Z,73.80
2019-05-23T03:52:38.181Z,73.90
2019-05-23T03:55:07.939Z,74.10
2019-05-23T03:57:37.949Z,74.00
2019-05-23T04:00:13.959Z,74.10
2019-05-23T04:02:44.153Z,74.10
2019-05-23T04:05:13.866Z,74.10
2019-05-23T04:07:42.876Z,73.70
2019-05-23T04:10:12.472Z,74.10
2019-05-23T04:12:41.224Z,74.10
2019-05-23T04:15:11.892Z,73.90
2019-05-23T04:17:41.583Z,73.80
2019-05-23T04:20:10.862Z,73.90
2019-05-23T04:22:40.987Z,74.00
2019-05-23T04:25:10.716Z,73.80
2019-05-23T04:27:40.013Z,73.80
2019-05-23T04:30:10.871Z,73.90
2019-05-23T04:32:40.510Z,74.00
2019-05-23T04:35:10.515Z,74.00
2019-05-23T04:37:40.019Z,73.90
2019-05-23T04:40:11.474Z,74.00
2019-05-23T04:42:39.958Z,73.90
2019-05-23T04:45:10.742Z,73.70
2019-05-23T04:47:40.698Z,73.20
2019-05-23T04:50:12.685Z,72.10
2019-05-23T04:52:41.683Z,71.80
2019-05-23T04:55:13.085Z,71.40
2019-05-23T04:57:42.981Z,70.80
2019-05-23T05:00:14.787Z,68.50
2019-05-23T05:02:44.699Z,65.10
2019-05-23T05:05:14.922Z,62.50
2019-05-23T05:07:44.491Z,59.90
2019-05-23T05:10:17.623Z,58.20
2019-05-23T05:12:47.051Z,56.70
2019-05-23T05:15:16.505Z,55.00
2019-05-23T05:17:46.283Z,53.60
2019-05-23T05:20:15.953Z,52.40
2019-05-23T05:22:46.090Z,51.20
2019-05-23T05:25:16.102Z,50.20
2019-05-23T05:27:45.045Z,48.90
2019-05-23T05:30:14.364Z,47.80
2019-05-23T05:32:45.568Z,46.90
2019-05-23T05:35:15.462Z,45.90
2019-05-23T05:37:44.715Z,44.90
2019-05-23T05:40:14.317Z,43.80
2019-05-23T05:42:44.493Z,43.00
2019-05-23T05:45:13.812Z,42.30
2019-05-23T05:47:42.881Z,41.50
2019-05-23T05:50:14.299Z,40.80
2019-05-23T05:52:43.070Z,40.20
2019-05-23T05:55:12.346Z,39.30
2019-05-23T05:57:41.242Z,38.60
2019-05-23T06:00:28.914Z,37.80
2019-05-23T06:03:05.089Z,36.60
2019-05-23T06:05:32.096Z,36.40
2019-05-23T06:08:01.314Z,35.90
2019-05-23T06:10:30.559Z,35.00
2019-05-23T06:12:59.094Z,34.30
2019-05-23T06:15:28.527Z,34.30
2019-05-23T06:17:57.164Z,34.20
2019-05-23T06:20:27.047Z,33.80
2019-05-23T06:22:55.577Z,33.50
2019-05-23T06:25:25.386Z,33.20
2019-05-23T06:27:54.374Z,32.70
2019-05-23T06:30:24.958Z,32.40
2019-05-23T06:32:53.711Z,31.90
2019-05-23T06:35:22.943Z,31.50
2019-05-23T06:37:53.606Z,31.30
2019-05-23T06:40:22.435Z,30.90
2019-05-23T06:42:51.271Z,31.00
2019-05-23T06:45:20.739Z,30.40
2019-05-23T06:47:49.331Z,30.10
2019-05-23T06:50:20.074Z,30.00
2019-05-23T06:52:48.626Z,29.90
2019-05-23T06:55:17.124Z,29.40
2019-05-23T06:57:45.684Z,29.10
2019-05-23T07:00:16.642Z,29.00
2019-05-23T07:02:47.036Z,28.60
2019-05-23T07:05:18.159Z,28.60
2019-05-23T07:07:47.899Z,28.70
2019-05-23T07:10:16.616Z,28.50
2019-05-23T07:12:45.642Z,28.60
2019-05-23T07:15:14.490Z,28.80
2019-05-23T07:17:43.109Z,28.40
2019-05-23T07:20:12.815Z,27.70
2019-05-23T07:22:41.869Z,27.50
2019-05-23T07:25:10.777Z,27.00
2019-05-23T07:27:39.645Z,26.60
2019-05-23T07:30:26.576Z,26.30
2019-05-23T07:32:56.185Z,26.10
2019-05-23T07:35:26.140Z,25.80
2019-05-23T07:37:55.171Z,25.50
2019-05-23T07:40:30.216Z,25.40
2019-05-23T07:42:58.844Z,25.40
2019-05-23T07:45:45.991Z,25.10
2019-05-23T07:48:16.732Z,24.60
2019-05-23T07:50:45.933Z,24.70
2019-05-23T07:53:17.615Z,24.30
2019-05-23T07:55:48.302Z,24.20
2019-05-23T07:58:27.062Z,24.00
2019-05-23T08:00:56.325Z,23.90
2019-05-23T08:03:31.842Z,23.60
2019-05-23T08:06:00.658Z,23.40
2019-05-23T08:08:30.366Z,23.60
2019-05-23T08:10:58.913Z,23.70
2019-05-23T08:13:28.968Z,23.30
2019-05-23T08:15:57.901Z,23.20
2019-05-23T08:18:27.490Z,23.10
2019-05-23T08:20:56.258Z,23.50
2019-05-23T08:23:25.479Z,23.60
2019-05-23T08:25:55.111Z,23.80
2019-05-23T08:28:24.393Z,23.70
2019-05-23T08:30:52.958Z,23.80
2019-05-23T08:33:22.675Z,23.90
2019-05-23T08:35:52.311Z,23.90
2019-05-23T08:38:21.409Z,23.70
2019-05-23T08:40:51.575Z,23.80
2019-05-23T08:43:20.072Z,23.50
2019-05-23T08:45:48.922Z,23.80
2019-05-23T08:48:17.967Z,23.80
2019-05-23T08:50:46.510Z,24.00
2019-05-23T08:53:15.531Z,24.10
2019-05-23T08:55:48.903Z,24.60
2019-05-23T08:58:18.993Z,24.60
2019-05-23T09:00:48.669Z,24.70
2019-05-23T09:03:18.723Z,25.30
2019-05-23T09:05:48.558Z,25.80
2019-05-23T09:08:18.524Z,25.50
2019-05-23T09:10:48.129Z,25.70
2019-05-23T09:13:17.986Z,26.10
2019-05-23T09:15:46.937Z,26.40
2019-05-23T09:18:17.725Z,26.80
2019-05-23T09:20:46.462Z,26.70
2019-05-23T09:23:15.220Z,27.30
2019-05-23T09:25:44.291Z,27.80
2019-05-23T09:28:14.457Z,28.40
2019-05-23T09:30:43.259Z,28.20
2019-05-23T09:33:12.093Z,28.70
2019-05-23T09:35:40.568Z,28.70
2019-05-23T09:38:09.143Z,29.20
2019-05-23T09:40:37.797Z,28.90
2019-05-23T09:43:07.411Z,28.70
2019-05-23T09:45:36.123Z,29.30
2019-05-23T09:48:04.966Z,30.00
2019-05-23T09:50:33.478Z,29.70
2019-05-23T09:53:02.143Z,29.50
2019-05-23T09:55:31.759Z,30.00
2019-05-23T09:58:00.242Z,29.90
2019-05-23T10:00:30.506Z,29.70
2019-05-23T10:03:02.180Z,29.90
2019-05-23T10:05:42.661Z,29.90
2019-05-23T10:08:01.755Z,29.80
2019-05-23T10:10:31.566Z,29.80
2019-05-23T10:13:01.719Z,30.70
2019-05-23T10:15:39.486Z,30.50
2019-05-23T10:18:09.988Z,29.70
2019-05-23T10:20:39.552Z,29.80
2019-05-23T10:23:08.591Z,29.90
2019-05-23T10:25:37.201Z,29.80
2019-05-23T10:28:06.029Z,29.80
2019-05-23T10:30:34.583Z,30.10
2019-05-23T10:33:11.005Z,29.30
2019-05-23T10:35:35.071Z,29.50
2019-05-23T10:38:04.109Z,29.50
2019-05-23T10:40:33.009Z,29.50
2019-05-23T10:43:01.673Z,30.00
2019-05-23T10:45:30.700Z,29.80
2019-05-23T10:48:00.600Z,29.90
2019-05-23T10:50:43.516Z,29.50
2019-05-23T10:52:59.607Z,29.80
2019-05-23T10:55:28.191Z,29.40
2019-05-23T10:57:57.174Z,30.20
2019-05-23T11:00:26.148Z,30.30
2019-05-23T11:02:54.752Z,30.00
2019-05-23T11:05:23.851Z,30.10
2019-05-23T11:07:52.615Z,30.00
2019-05-23T11:10:22.792Z,30.00
2019-05-23T11:12:51.903Z,29.60
2019-05-23T11:15:20.631Z,29.40
2019-05-23T11:18:10.231Z,29.00
2019-05-23T11:20:38.759Z,28.90
2019-05-23T11:23:07.877Z,29.30
2019-05-23T11:25:40.718Z,29.50
2019-05-23T11:31:10.975Z,29.20
2019-05-23T11:33:40.001Z,29.00
2019-05-23T11:36:08.981Z,29.00
2019-05-23T11:38:41.326Z,29.20
2019-05-23T11:41:13.363Z,29.40
2019-05-23T11:43:52.832Z,29.20
2019-05-23T11:46:29.887Z,28.50
2019-05-23T11:49:03.291Z,28.00
2019-05-23T11:51:32.690Z,27.30
2019-05-23T11:54:08.547Z,27.70
2019-05-23T11:56:33.478Z,27.70
2019-05-23T11:59:03.473Z,26.90
2019-05-23T12:01:39.928Z,26.60
2019-05-23T12:04:19.147Z,26.20
2019-05-23T12:06:59.606Z,26.60
2019-05-23T12:09:31.353Z,26.70
2019-05-23T12:12:01.819Z,26.90
2019-05-23T12:14:36.377Z,26.40
2019-05-23T12:17:06.401Z,26.20
2019-05-23T12:19:38.294Z,25.90
2019-05-23T12:22:08.879Z,26.30
2019-05-23T12:24:39.141Z,26.60
2019-05-23T12:27:07.780Z,25.80
2019-05-23T12:29:37.379Z,26.00
2019-05-23T12:32:08.935Z,26.10
2019-05-23T12:34:37.609Z,26.10
2019-05-23T12:37:21.537Z,25.60
2019-05-23T12:39:36.356Z,25.60
2019-05-23T12:42:05.459Z,25.40
2019-05-23T12:44:34.370Z,25.60
2019-05-23T12:47:04.482Z,25.50
2019-05-23T12:49:34.686Z,26.30
2019-05-23T12:52:04.203Z,25.90
2019-05-23T12:54:33.495Z,26.60
2019-05-23T12:57:02.451Z,25.50
2019-05-23T12:59:31.470Z,25.10
2019-05-23T13:02:01.658Z,24.90
2019-05-23T13:04:31.031Z,24.90
2019-05-23T13:06:59.658Z,25.10
2019-05-23T13:09:28.292Z,25.10
2019-05-23T13:11:57.152Z,24.90
2019-05-23T13:14:26.096Z,24.40
2019-05-23T13:16:55.016Z,24.10
2019-05-23T13:19:24.021Z,24.50
2019-05-23T13:21:52.563Z,25.00
2019-05-23T13:24:21.654Z,24.70
2019-05-23T13:26:50.257Z,25.20
2019-05-23T13:29:19.368Z,25.30
2019-05-23T13:31:48.379Z,25.90
2019-05-23T13:34:16.923Z,25.60
2019-05-23T13:36:45.516Z,25.30
2019-05-23T13:39:15.006Z,25.40
2019-05-23T13:41:43.547Z,25.40
2019-05-23T13:44:32.046Z,25.00
2019-05-23T13:46:45.670Z,24.90
2019-05-23T13:49:14.374Z,25.70
2019-05-23T13:51:43.025Z,25.70
2019-05-23T13:54:12.076Z,25.90
2019-05-23T13:57:00.038Z,26.00
2019-05-23T13:59:28.611Z,26.00
2019-05-23T14:01:57.490Z,25.40
2019-05-23T14:04:26.827Z,25.40
2019-05-23T14:06:55.305Z,25.40
2019-05-23T14:09:25.746Z,25.60
2019-05-23T14:12:19.439Z,25.20
2019-05-23T14:14:24.932Z,25.30
2019-05-23T14:16:57.880Z,25.40
2019-05-23T14:19:29.326Z,25.10
2019-05-23T14:21:56.610Z,25.40
2019-05-23T14:24:25.547Z,25.00
2019-05-23T14:26:58.547Z,25.20
2019-05-23T14:29:27.848Z,25.10
2019-05-23T14:31:58.058Z,25.10
2019-05-23T14:34:27.963Z,25.40
2019-05-23T14:36:59.187Z,25.90
2019-05-23T14:39:29.830Z,27.00
2019-05-23T14:42:00.800Z,27.60
2019-05-23T14:44:29.803Z,27.50
2019-05-23T14:47:03.177Z,26.90
2019-05-23T14:49:39.264Z,25.80
2019-05-23T14:52:27.275Z,26.60
2019-05-23T14:54:57.399Z,27.30
2019-05-23T14:57:27.194Z,26.70
2019-05-23T14:59:56.855Z,27.30
2019-05-23T15:02:26.522Z,28.10
2019-05-23T15:04:55.066Z,28.20
2019-05-23T15:07:23.834Z,27.70
2019-05-23T15:09:52.357Z,27.40
2019-05-23T15:12:21.218Z,27.40
2019-05-23T15:14:50.191Z,28.00
2019-05-23T15:17:19.217Z,27.40
2019-05-23T15:19:47.716Z,27.20
2019-05-23T15:22:16.189Z,27.00
2019-05-23T15:24:44.796Z,26.30
2019-05-23T15:27:13.362Z,26.10
2019-05-23T15:29:41.859Z,25.80
2019-05-23T15:32:10.469Z,26.00
2019-05-23T15:34:39.016Z,26.10
2019-05-23T15:37:07.676Z,25.80
2019-05-23T15:39:36.434Z,25.60
2019-05-23T15:42:05.267Z,26.30
2019-05-23T15:44:33.831Z,26.30
2019-05-23T15:47:02.447Z,27.20
2019-05-23T15:49:32.701Z,26.60
2019-05-23T15:52:05.440Z,27.10
2019-05-23T15:54:36.169Z,27.00
2019-05-23T15:57:18.528Z,27.20
2019-05-23T15:59:49.186Z,27.40
2019-05-23T16:02:19.651Z,27.60
2019-05-23T16:04:49.147Z,27.30
2019-05-23T16:07:18.119Z,27.60
2019-05-23T16:09:47.231Z,28.00
2019-05-23T16:12:16.412Z,27.70
2019-05-23T16:14:48.430Z,27.70
2019-05-23T16:17:18.536Z,28.30
2019-05-23T16:19:50.276Z,28.30
2019-05-23T16:22:19.204Z,28.80
2019-05-23T16:24:48.043Z,29.10
2019-05-23T16:27:20.766Z,29.20
2019-05-23T16:29:49.258Z,29.80
2019-05-23T16:32:18.208Z,29.70
2019-05-23T16:34:46.819Z,30.30
2019-05-23T16:37:16.555Z,30.00
2019-05-23T16:39:48.014Z,30.50
2019-05-23T16:42:18.419Z,30.70
2019-05-23T16:44:47.438Z,31.00
2019-05-23T16:47:15.911Z,31.10
2019-05-23T16:49:44.420Z,31.30
2019-05-23T16:52:13.326Z,31.60
2019-05-23T16:54:43.614Z,31.90
2019-05-23T16:57:20.339Z,32.00
2019-05-23T16:59:50.468Z,32.20
2019-05-23T17:02:20.851Z,32.20
2019-05-23T17:05:08.380Z,32.50
2019-05-23T17:07:39.549Z,32.60
2019-05-23T17:10:10.406Z,32.50
2019-05-23T17:12:43.467Z,32.70
2019-05-23T17:15:30.443Z,32.70
2019-05-23T17:18:18.411Z,32.90
2019-05-23T17:20:51.009Z,32.80
2019-05-23T17:23:39.790Z,33.50
2019-05-23T17:26:29.950Z,33.10
2019-05-23T17:31:44.299Z,33.40
2019-05-23T17:34:12.925Z,33.80
2019-05-23T17:36:41.997Z,34.20
2019-05-23T17:39:12.504Z,34.30
2019-05-23T17:41:41.441Z,34.40
2019-05-23T17:44:10.072Z,34.20
2019-05-23T17:46:38.698Z,34.40
2019-05-23T17:49:07.537Z,34.50
2019-05-23T17:51:36.508Z,34.80
2019-05-23T17:54:05.214Z,34.80
2019-05-23T17:56:33.676Z,34.80
2019-05-23T17:59:02.590Z,34.90
2019-05-23T18:01:32.787Z,34.90
2019-05-23T18:04:01.810Z,34.90
2019-05-23T18:06:30.744Z,34.90
2019-05-23T18:09:00.066Z,34.90
2019-05-23T18:11:28.526Z,35.10
2019-05-23T18:13:57.026Z,35.20
2019-05-23T18:16:25.503Z,35.40
2019-05-23T18:18:54.260Z,35.40
2019-05-23T18:21:23.931Z,35.60
2019-05-23T18:23:54.028Z,35.40
2019-05-23T18:26:22.507Z,35.70
2019-05-23T18:28:51.346Z,35.80
2019-05-23T18:31:22.355Z,35.90
2019-05-23T18:33:52.739Z,36.10
2019-05-23T18:36:21.451Z,36.00
2019-05-23T18:38:50.478Z,36.10
2019-05-23T18:41:21.481Z,36.20
2019-05-23T18:43:59.336Z,36.30
2019-05-23T18:46:29.531Z,36.40
2019-05-23T18:49:00.521Z,36.20
2019-05-23T18:51:29.713Z,36.30
2019-05-23T18:53:58.220Z,36.60
2019-05-23T18:56:26.874Z,36.90
2019-05-23T18:58:56.274Z,37.00
2019-05-23T19:01:26.292Z,37.30
2019-05-23T19:04:03.569Z,37.60
2019-05-23T19:06:43.884Z,38.30
2019-05-23T19:09:16.113Z,39.10
2019-05-23T19:11:48.999Z,39.90
2019-05-23T19:14:19.395Z,40.40
2019-05-23T19:16:51.171Z,40.70
2019-05-23T19:19:21.642Z,41.00
2019-05-23T19:21:53.083Z,40.70
2019-05-23T19:24:25.450Z,41.00
2019-05-23T19:26:55.067Z,41.40
2019-05-23T19:29:30.195Z,41.90
2019-05-23T19:32:00.086Z,42.80
2019-05-23T19:34:30.578Z,42.50
2019-05-23T19:37:01.113Z,42.40
2019-05-23T19:39:32.320Z,42.50
2019-05-23T19:42:02.872Z,42.70
2019-05-23T19:44:36.458Z,42.90
2019-05-23T19:47:09.247Z,42.90
2019-05-23T19:49:50.752Z,43.00
2019-05-23T19:52:24.915Z,43.20
2019-05-23T19:54:56.367Z,43.10
2019-05-23T19:57:31.454Z,43.20
2019-05-23T20:00:04.336Z,43.40
2019-05-23T20:02:43.107Z,43.30
2019-05-23T20:05:23.110Z,44.50
2019-05-23T20:07:56.594Z,44.40
2019-05-23T20:10:30.165Z,44.60
2019-05-23T20:12:58.885Z,45.10
2019-05-23T20:15:28.306Z,45.40
2019-05-23T20:17:56.787Z,45.80
2019-05-23T20:20:26.377Z,46.20
2019-05-23T20:22:55.243Z,46.50
2019-05-23T20:25:24.925Z,46.70
2019-05-23T20:27:53.551Z,47.00
2019-05-23T20:30:45.674Z,47.40
2019-05-23T20:33:14.758Z,47.60
2019-05-23T20:35:43.724Z,47.60
2019-05-23T20:38:12.616Z,47.90
2019-05-23T20:40:41.334Z,48.20
2019-05-23T20:43:10.573Z,48.40
2019-05-23T20:45:39.874Z,48.80
2019-05-23T20:48:09.783Z,49.00
2019-05-23T20:50:38.300Z,49.30
2019-05-23T20:53:07.204Z,49.50
2019-05-23T20:55:35.878Z,49.50
2019-05-23T20:58:05.798Z,49.60
2019-05-23T21:00:36.014Z,49.80
2019-05-23T21:03:06.505Z,50.10
2019-05-23T21:05:35.781Z,50.30
2019-05-23T21:08:04.623Z,50.30
2019-05-23T21:10:42.414Z,50.50
2019-05-23T21:13:10.950Z,50.80
2019-05-23T21:15:41.013Z,51.00
2019-05-23T21:18:10.174Z,50.90
2019-05-23T21:20:39.247Z,51.10
2019-05-23T21:23:08.057Z,51.30
2019-05-23T21:25:38.314Z,51.60
2019-05-23T21:28:07.267Z,51.80
2019-05-23T21:30:35.808Z,52.00
2019-05-23T21:33:05.504Z,52.20
2019-05-23T21:35:34.646Z,52.60
2019-05-23T21:38:03.231Z,52.80
2019-05-23T21:40:34.916Z,52.90
2019-05-23T21:43:04.271Z,52.90
2019-05-23T21:45:33.552Z,52.90
2019-05-23T21:48:02.043Z,53.20
2019-05-23T21:50:30.766Z,53.40
2019-05-23T21:52:59.326Z,53.50
2019-05-23T21:55:41.515Z,53.70
2019-05-23T21:58:12.324Z,53.70
2019-05-23T22:01:06.644Z,53.60
2019-05-23T22:03:53.659Z,53.80
2019-05-23T22:06:42.473Z,53.80
2019-05-23T22:09:12.597Z,54.00
2019-05-23T22:11:41.238Z,54.00
2019-05-23T22:14:09.790Z,54.20
2019-05-23T22:16:38.645Z,54.40
2019-05-23T22:19:09.314Z,54.70
2019-05-23T22:21:39.556Z,55.00
2019-05-23T22:24:13.825Z,55.00
2019-05-23T22:26:42.978Z,55.10
2019-05-23T22:29:14.691Z,55.20
2019-05-23T22:31:44.911Z,55.40
2019-05-23T22:34:38.972Z,55.50
2019-05-23T22:37:09.122Z,55.90
2019-05-23T22:39:37.592Z,56.00
2019-05-23T22:42:06.955Z,56.00
2019-05-23T22:44:35.415Z,56.40
2019-05-23T22:47:04.824Z,56.30
2019-05-23T22:49:33.383Z,56.50
2019-05-23T22:52:02.231Z,56.80
2019-05-23T22:54:30.728Z,56.70
2019-05-23T22:57:19.014Z,56.90
2019-05-23T22:59:47.484Z,57.00
2019-05-23T23:02:17.584Z,57.10
2019-05-23T23:04:46.637Z,57.30
2019-05-23T23:07:16.509Z,57.80
2019-05-23T23:09:45.074Z,57.80
2019-05-23T23:12:13.585Z,58.20
2019-05-23T23:14:42.229Z,58.20
2019-05-23T23:17:10.790Z,58.50
2019-05-23T23:19:39.263Z,58.60
2019-05-23T23:22:10.185Z,58.80
2019-05-23T23:24:38.747Z,59.00
2019-05-23T23:27:07.271Z,59.20
2019-05-23T23:29:35.755Z,59.20
2019-05-23T23:32:05.055Z,59.30
2019-05-23T23:34:33.737Z,59.40
2019-05-23T23:37:02.226Z,59.50
2019-05-23T23:39:31.341Z,59.60
2019-05-23T23:41:59.930Z,59.60
2019-05-23T23:44:33.726Z,59.80
2019-05-23T23:47:22.045Z,60.00
2019-05-23T23:50:09.135Z,60.20
2019-05-23T23:52:55.459Z,60.20
2019-05-23T23:55:42.269Z,60.40
2019-05-23T23:58:10.104Z,60.50
